sensor_id;sensor_type;location;lat;lon;timestamp;pressure;altitude;pressure_sealevel;temperature;humidity
15674;BME280;7937;48.090;16.212;2023-03-21T00:00:30;97882.19;;;10.06;64.29
15674;BME280;7937;48.090;16.212;2023-03-21T00:03:34;97871.66;;;10.12;64.21
15674;BME280;7937;48.090;16.212;2023-03-21T00:06:36;97833.59;;;9.88;64.02
15674;BME280;7937;48.090;16.212;2023-03-21T00:09:38;97879.28;;;10.08;63.83
15674;BME280;7937;48.090;16.212;2023-03-21T00:12:41;97873.72;;;10.09;63.89
15674;BME280;7937;48.090;16.212;2023-03-21T00:15:43;97882.63;;;10.03;63.89
15674;BME280;7937;48.090;16.212;2023-03-21T00:19:08;97877.22;;;9.98;64.04
15674;BME280;7937;48.090;16.212;2023-03-21T00:22:10;97865.63;;;10.04;63.69
15674;BME280;7937;48.090;16.212;2023-03-21T00:25:12;97862.41;;;10.02;63.73
15674;BME280;7937;48.090;16.212;2023-03-21T00:28:14;97863.34;;;9.96;63.86
15674;BME280;7937;48.090;16.212;2023-03-21T00:31:17;97853.72;;;9.83;64.15
15674;BME280;7937;48.090;16.212;2023-03-21T00:34:19;97864.72;;;9.87;63.98
15674;BME280;7937;48.090;16.212;2023-03-21T00:37:41;97850.25;;;9.83;63.99
15674;BME280;7937;48.090;16.212;2023-03-21T00:40:44;97834.78;;;9.68;64.30
15674;BME280;7937;48.090;16.212;2023-03-21T00:43:50;97855.47;;;9.78;64.33
15674;BME280;7937;48.090;16.212;2023-03-21T00:46:52;97844.03;;;9.77;64.48
15674;BME280;7937;48.090;16.212;2023-03-21T00:50:08;97838.94;;;9.76;64.30
15674;BME280;7937;48.090;16.212;2023-03-21T00:53:11;97835.25;;;9.77;64.42
15674;BME280;7937;48.090;16.212;2023-03-21T00:56:14;97843.22;;;9.77;64.32
15674;BME280;7937;48.090;16.212;2023-03-21T00:59:16;97810.16;;;9.61;64.32
15674;BME280;7937;48.090;16.212;2023-03-21T01:02:18;97844.72;;;9.73;64.48
15674;BME280;7937;48.090;16.212;2023-03-21T01:05:29;97837.66;;;9.67;64.96
15674;BME280;7937;48.090;16.212;2023-03-21T01:08:54;97840.56;;;9.77;64.72
15674;BME280;7937;48.090;16.212;2023-03-21T01:11:56;97844.50;;;9.86;64.12
15674;BME280;7937;48.090;16.212;2023-03-21T01:14:58;97837.66;;;9.78;64.17
15674;BME280;7937;48.090;16.212;2023-03-21T01:18:01;97836.13;;;10.06;63.32
15674;BME280;7937;48.090;16.212;2023-03-21T01:21:07;97840.38;;;10.19;62.32
15674;BME280;7937;48.090;16.212;2023-03-21T01:24:09;97830.88;;;10.35;62.01
15674;BME280;7937;48.090;16.212;2023-03-21T01:27:12;97836.50;;;10.50;61.20
15674;BME280;7937;48.090;16.212;2023-03-21T01:30:14;97836.81;;;10.53;61.07
15674;BME280;7937;48.090;16.212;2023-03-21T01:33:22;97834.88;;;10.49;61.31
15674;BME280;7937;48.090;16.212;2023-03-21T01:36:25;97821.59;;;10.37;61.02
15674;BME280;7937;48.090;16.212;2023-03-21T01:39:33;97809.91;;;10.38;60.72
15674;BME280;7937;48.090;16.212;2023-03-21T01:42:36;97843.28;;;10.57;61.04
15674;BME280;7937;48.090;16.212;2023-03-21T01:46:05;97837.88;;;10.52;60.90
15674;BME280;7937;48.090;16.212;2023-03-21T01:49:33;97845.31;;;10.50;60.99
15674;BME280;7937;48.090;16.212;2023-03-21T01:52:59;97816.63;;;10.41;60.96
15674;BME280;7937;48.090;16.212;2023-03-21T01:56:11;97841.13;;;10.54;60.94
15674;BME280;7937;48.090;16.212;2023-03-21T01:59:28;97810.50;;;10.40;60.66
15674;BME280;7937;48.090;16.212;2023-03-21T02:03:08;97834.06;;;10.48;61.06
15674;BME280;7937;48.090;16.212;2023-03-21T02:06:37;97825.97;;;10.43;61.25
15674;BME280;7937;48.090;16.212;2023-03-21T02:10:07;97829.78;;;10.47;61.13
15674;BME280;7937;48.090;16.212;2023-03-21T02:13:13;97824.38;;;10.42;61.56
15674;BME280;7937;48.090;16.212;2023-03-21T02:16:24;97823.13;;;10.33;61.70
15674;BME280;7937;48.090;16.212;2023-03-21T02:43:09;97809.75;;;9.93;63.33
15674;BME280;7937;48.090;16.212;2023-03-21T02:50:04;97786.88;;;9.68;62.79
15674;BME280;7937;48.090;16.212;2023-03-21T02:53:10;97814.41;;;9.86;62.88
15674;BME280;7937;48.090;16.212;2023-03-21T02:56:14;97796.56;;;9.98;61.88
15674;BME280;7937;48.090;16.212;2023-03-21T02:59:22;97806.44;;;9.86;62.24
15674;BME280;7937;48.090;16.212;2023-03-21T03:02:27;97806.16;;;9.99;61.87
15674;BME280;7937;48.090;16.212;2023-03-21T03:05:36;97802.94;;;9.85;62.30
15674;BME280;7937;48.090;16.212;2023-03-21T03:12:17;97805.16;;;9.76;62.39
15674;BME280;7937;48.090;16.212;2023-03-21T03:19:00;97792.56;;;9.72;62.08
15674;BME280;7937;48.090;16.212;2023-03-21T03:22:09;97798.34;;;9.80;61.90
15674;BME280;7937;48.090;16.212;2023-03-21T03:25:19;97804.94;;;9.78;62.23
15674;BME280;7937;48.090;16.212;2023-03-21T03:28:45;97777.66;;;9.71;61.46
15674;BME280;7937;48.090;16.212;2023-03-21T03:31:59;97800.53;;;9.83;61.88
15674;BME280;7937;48.090;16.212;2023-03-21T03:35:06;97805.16;;;9.76;62.19
15674;BME280;7937;48.090;16.212;2023-03-21T03:38:09;97800.75;;;9.70;62.25
15674;BME280;7937;48.090;16.212;2023-03-21T03:41:26;97762.66;;;9.41;62.47
15674;BME280;7937;48.090;16.212;2023-03-21T03:44:37;97799.28;;;9.63;62.67
15674;BME280;7937;48.090;16.212;2023-03-21T03:51:09;97790.59;;;9.67;62.78
15674;BME280;7937;48.090;16.212;2023-03-21T03:54:37;97795.81;;;9.62;62.86
15674;BME280;7937;48.090;16.212;2023-03-21T03:57:40;97794.53;;;9.65;62.56
15674;BME280;7937;48.090;16.212;2023-03-21T04:00:43;97798.22;;;9.64;62.39
15674;BME280;7937;48.090;16.212;2023-03-21T04:03:46;97777.56;;;9.42;63.04
15674;BME280;7937;48.090;16.212;2023-03-21T04:07:08;97799.75;;;9.48;63.27
15674;BME280;7937;48.090;16.212;2023-03-21T04:10:11;97801.69;;;9.41;63.78
15674;BME280;7937;48.090;16.212;2023-03-21T04:13:15;97798.34;;;9.45;63.61
15674;BME280;7937;48.090;16.212;2023-03-21T04:16:52;97766.78;;;9.25;63.68
15674;BME280;7937;48.090;16.212;2023-03-21T04:19:55;97787.72;;;9.34;63.56
15674;BME280;7937;48.090;16.212;2023-03-21T04:23:11;97806.44;;;9.39;63.52
15674;BME280;7937;48.090;16.212;2023-03-21T04:26:18;97806.22;;;9.52;62.95
15674;BME280;7937;48.090;16.212;2023-03-21T04:29:41;97814.28;;;9.45;63.28
15674;BME280;7937;48.090;16.212;2023-03-21T04:33:09;97809.34;;;9.37;63.67
15674;BME280;7937;48.090;16.212;2023-03-21T04:36:13;97806.91;;;9.24;63.92
15674;BME280;7937;48.090;16.212;2023-03-21T04:39:28;97806.22;;;9.17;64.17
15674;BME280;7937;48.090;16.212;2023-03-21T04:42:30;97775.44;;;8.97;64.20
15674;BME280;7937;48.090;16.212;2023-03-21T04:45:32;97793.13;;;9.03;64.21
15674;BME280;7937;48.090;16.212;2023-03-21T04:48:34;97802.50;;;9.18;64.05
15674;BME280;7937;48.090;16.212;2023-03-21T04:51:36;97797.75;;;9.08;64.27
15674;BME280;7937;48.090;16.212;2023-03-21T04:54:43;97804.69;;;9.09;64.11
15674;BME280;7937;48.090;16.212;2023-03-21T04:57:46;97810.81;;;9.10;64.36
15674;BME280;7937;48.090;16.212;2023-03-21T05:00:48;97803.88;;;9.09;64.23
15674;BME280;7937;48.090;16.212;2023-03-21T05:03:56;97812.78;;;9.02;64.26
15674;BME280;7937;48.090;16.212;2023-03-21T05:06:58;97800.13;;;8.86;64.53
15674;BME280;7937;48.090;16.212;2023-03-21T05:10:01;97818.38;;;8.83;64.02
15674;BME280;7937;48.090;16.212;2023-03-21T05:13:04;97817.91;;;8.44;64.76
15674;BME280;7937;48.090;16.212;2023-03-21T05:16:07;97834.25;;;8.22;64.96
15674;BME280;7937;48.090;16.212;2023-03-21T05:19:10;97840.47;;;7.98;65.90
15674;BME280;7937;48.090;16.212;2023-03-21T05:22:16;97835.97;;;7.80;65.96
15674;BME280;7937;48.090;16.212;2023-03-21T05:25:21;97838.69;;;7.48;66.97
15674;BME280;7937;48.090;16.212;2023-03-21T05:28:56;97812.59;;;7.27;67.48
15674;BME280;7937;48.090;16.212;2023-03-21T05:31:59;97845.84;;;7.48;67.24
15674;BME280;7937;48.090;16.212;2023-03-21T05:35:02;97839.81;;;7.41;67.53
15674;BME280;7937;48.090;16.212;2023-03-21T05:38:04;97842.03;;;7.44;67.66
15674;BME280;7937;48.090;16.212;2023-03-21T05:41:17;97841.00;;;7.45;67.46
15674;BME280;7937;48.090;16.212;2023-03-21T05:44:22;97842.59;;;7.46;67.65
15674;BME280;7937;48.090;16.212;2023-03-21T05:47:25;97842.72;;;7.33;67.91
15674;BME280;7937;48.090;16.212;2023-03-21T05:50:29;97841.69;;;7.34;68.24
15674;BME280;7937;48.090;16.212;2023-03-21T05:53:44;97837.25;;;7.28;68.21
15674;BME280;7937;48.090;16.212;2023-03-21T05:56:48;97839.72;;;7.29;68.48
15674;BME280;7937;48.090;16.212;2023-03-21T06:00:01;97840.34;;;7.24;68.32
15674;BME280;7937;48.090;16.212;2023-03-21T06:03:04;97844.81;;;7.24;68.49
15674;BME280;7937;48.090;16.212;2023-03-21T06:06:28;97841.97;;;7.26;68.72
15674;BME280;7937;48.090;16.212;2023-03-21T06:09:33;97837.16;;;7.41;68.53
15674;BME280;7937;48.090;16.212;2023-03-21T06:12:37;97852.44;;;7.64;68.34
15674;BME280;7937;48.090;16.212;2023-03-21T06:15:49;97846.88;;;7.90;68.11
15674;BME280;7937;48.090;16.212;2023-03-21T06:18:55;97846.00;;;8.15;67.71
15674;BME280;7937;48.090;16.212;2023-03-21T06:22:36;97846.16;;;8.38;66.97
15674;BME280;7937;48.090;16.212;2023-03-21T06:25:39;97841.28;;;8.65;66.54
15674;BME280;7937;48.090;16.212;2023-03-21T06:28:41;97847.59;;;8.83;66.04
15674;BME280;7937;48.090;16.212;2023-03-21T06:31:44;97808.44;;;8.78;65.61
15674;BME280;7937;48.090;16.212;2023-03-21T06:34:46;97850.28;;;9.36;64.94
15674;BME280;7937;48.090;16.212;2023-03-21T06:37:49;97837.09;;;9.53;64.37
15674;BME280;7937;48.090;16.212;2023-03-21T06:40:52;97826.22;;;9.54;64.33
15674;BME280;7937;48.090;16.212;2023-03-21T06:43:57;97822.66;;;9.61;64.09
15674;BME280;7937;48.090;16.212;2023-03-21T06:46:59;97851.09;;;9.72;63.33
15674;BME280;7937;48.090;16.212;2023-03-21T06:50:02;97823.31;;;9.68;62.53
15674;BME280;7937;48.090;16.212;2023-03-21T06:53:12;97844.47;;;9.98;61.71
15674;BME280;7937;48.090;16.212;2023-03-21T06:56:34;97848.63;;;10.05;61.38
15674;BME280;7937;48.090;16.212;2023-03-21T06:59:37;97825.63;;;9.88;61.76
15674;BME280;7937;48.090;16.212;2023-03-21T07:02:47;97846.19;;;10.04;61.04
15674;BME280;7937;48.090;16.212;2023-03-21T07:05:53;97847.94;;;10.10;61.03
15674;BME280;7937;48.090;16.212;2023-03-21T07:08:57;97844.06;;;10.18;61.05
15674;BME280;7937;48.090;16.212;2023-03-21T07:11:59;97809.72;;;10.04;60.86
15674;BME280;7937;48.090;16.212;2023-03-21T07:15:13;97780.75;;;9.79;60.49
15674;BME280;7937;48.090;16.212;2023-03-21T07:18:17;97846.97;;;10.40;59.53
15674;BME280;7937;48.090;16.212;2023-03-21T07:21:19;97851.69;;;10.49;58.96
15674;BME280;7937;48.090;16.212;2023-03-21T07:24:21;97853.59;;;10.66;58.55
15674;BME280;7937;48.090;16.212;2023-03-21T07:27:23;97852.81;;;10.82;57.95
15674;BME280;7937;48.090;16.212;2023-03-21T07:30:25;97857.28;;;10.93;57.18
15674;BME280;7937;48.090;16.212;2023-03-21T07:33:27;97854.22;;;11.01;57.20
15674;BME280;7937;48.090;16.212;2023-03-21T07:36:32;97849.31;;;11.27;56.13
15674;BME280;7937;48.090;16.212;2023-03-21T07:39:34;97855.47;;;11.44;54.95
15674;BME280;7937;48.090;16.212;2023-03-21T07:42:39;97854.19;;;11.63;54.70
15674;BME280;7937;48.090;16.212;2023-03-21T07:45:43;97852.00;;;11.77;53.12
15674;BME280;7937;48.090;16.212;2023-03-21T07:48:45;97850.09;;;12.33;52.33
15674;BME280;7937;48.090;16.212;2023-03-21T07:51:47;97858.47;;;12.91;50.18
15674;BME280;7937;48.090;16.212;2023-03-21T07:54:49;97835.34;;;12.53;50.23
15674;BME280;7937;48.090;16.212;2023-03-21T07:57:51;97855.91;;;12.52;51.56
15674;BME280;7937;48.090;16.212;2023-03-21T08:00:54;97845.84;;;15.74;44.63
15674;BME280;7937;48.090;16.212;2023-03-21T08:03:59;97855.72;;;16.10;43.29
15674;BME280;7937;48.090;16.212;2023-03-21T08:07:01;97848.16;;;18.85;37.85
15674;BME280;7937;48.090;16.212;2023-03-21T08:10:04;97831.75;;;21.17;31.79
15674;BME280;7937;48.090;16.212;2023-03-21T08:13:06;97845.09;;;22.43;30.65
15674;BME280;7937;48.090;16.212;2023-03-21T08:16:08;97846.81;;;21.46;31.29
15674;BME280;7937;48.090;16.212;2023-03-21T08:19:10;97843.13;;;23.53;28.71
15674;BME280;7937;48.090;16.212;2023-03-21T08:22:12;97851.69;;;22.59;29.10
15674;BME280;7937;48.090;16.212;2023-03-21T08:25:15;97859.66;;;20.54;31.34
15674;BME280;7937;48.090;16.212;2023-03-21T08:28:19;97860.25;;;18.45;35.76
15674;BME280;7937;48.090;16.212;2023-03-21T08:31:21;97851.97;;;20.97;32.32
15674;BME280;7937;48.090;16.212;2023-03-21T08:34:24;97850.25;;;20.51;32.07
15674;BME280;7937;48.090;16.212;2023-03-21T08:37:27;97846.66;;;19.17;34.83
15674;BME280;7937;48.090;16.212;2023-03-21T08:40:29;97854.56;;;18.22;36.63
15674;BME280;7937;48.090;16.212;2023-03-21T08:43:31;97857.81;;;16.93;38.75
15674;BME280;7937;48.090;16.212;2023-03-21T08:46:33;97852.81;;;15.09;43.11
15674;BME280;7937;48.090;16.212;2023-03-21T08:49:36;97834.81;;;14.16;45.37
15674;BME280;7937;48.090;16.212;2023-03-21T08:52:38;97836.34;;;14.02;45.84
15674;BME280;7937;48.090;16.212;2023-03-21T08:55:40;97862.38;;;14.12;46.11
15674;BME280;7937;48.090;16.212;2023-03-21T08:58:42;97854.41;;;13.75;46.84
15674;BME280;7937;48.090;16.212;2023-03-21T09:01:45;97853.41;;;13.91;46.95
15674;BME280;7937;48.090;16.212;2023-03-21T09:04:47;97816.38;;;13.78;46.88
15674;BME280;7937;48.090;16.212;2023-03-21T09:07:50;97857.88;;;14.23;46.25
15674;BME280;7937;48.090;16.212;2023-03-21T09:10:54;97844.47;;;15.01;44.89
15674;BME280;7937;48.090;16.212;2023-03-21T09:13:56;97825.97;;;15.19;44.49
15674;BME280;7937;48.090;16.212;2023-03-21T09:16:59;97815.53;;;15.33;43.51
15674;BME280;7937;48.090;16.212;2023-03-21T09:20:01;97841.00;;;15.51;43.45
15674;BME280;7937;48.090;16.212;2023-03-21T09:23:12;97844.75;;;15.55;43.16
15674;BME280;7937;48.090;16.212;2023-03-21T09:26:15;97833.22;;;15.60;42.99
15674;BME280;7937;48.090;16.212;2023-03-21T09:29:18;97827.63;;;15.71;42.74
15674;BME280;7937;48.090;16.212;2023-03-21T09:32:22;97834.59;;;15.67;42.89
15674;BME280;7937;48.090;16.212;2023-03-21T09:35:24;97828.41;;;15.26;43.74
15674;BME280;7937;48.090;16.212;2023-03-21T09:38:27;97775.78;;;14.79;43.08
15674;BME280;7937;48.090;16.212;2023-03-21T09:47:59;97816.81;;;15.92;40.85
15674;BME280;7937;48.090;16.212;2023-03-21T09:51:04;97808.16;;;16.05;39.97
15674;BME280;7937;48.090;16.212;2023-03-21T09:54:21;97795.72;;;16.30;38.79
15674;BME280;7937;48.090;16.212;2023-03-21T09:57:30;97818.88;;;16.25;38.35
15674;BME280;7937;48.090;16.212;2023-03-21T10:00:37;97810.94;;;15.69;38.67
15674;BME280;7937;48.090;16.212;2023-03-21T10:03:44;97809.84;;;15.81;38.91
15674;BME280;7937;48.090;16.212;2023-03-21T10:06:57;97808.44;;;16.09;39.00
15674;BME280;7937;48.090;16.212;2023-03-21T10:10:01;97804.13;;;16.67;37.74
15674;BME280;7937;48.090;16.212;2023-03-21T10:13:13;97801.34;;;16.88;36.96
15674;BME280;7937;48.090;16.212;2023-03-21T10:16:31;97789.75;;;16.38;37.96
15674;BME280;7937;48.090;16.212;2023-03-21T10:19:33;97795.69;;;16.35;38.27
15674;BME280;7937;48.090;16.212;2023-03-21T10:22:36;97778.66;;;15.90;38.88
15674;BME280;7937;48.090;16.212;2023-03-21T10:25:41;97748.94;;;15.45;39.52
15674;BME280;7937;48.090;16.212;2023-03-21T10:28:46;97783.41;;;16.68;37.80
15674;BME280;7937;48.090;16.212;2023-03-21T10:31:54;97782.75;;;16.91;36.48
15674;BME280;7937;48.090;16.212;2023-03-21T10:34:57;97781.75;;;17.16;36.57
15674;BME280;7937;48.090;16.212;2023-03-21T10:38:00;97771.31;;;16.75;36.13
15674;BME280;7937;48.090;16.212;2023-03-21T10:41:02;97774.41;;;17.56;35.71
15674;BME280;7937;48.090;16.212;2023-03-21T10:44:16;97779.25;;;18.07;34.98
15674;BME280;7937;48.090;16.212;2023-03-21T10:47:27;97790.38;;;17.76;35.64
15674;BME280;7937;48.090;16.212;2023-03-21T10:50:29;97782.69;;;17.01;35.81
15674;BME280;7937;48.090;16.212;2023-03-21T10:53:36;97787.34;;;16.91;36.40
15674;BME280;7937;48.090;16.212;2023-03-21T10:56:47;97783.06;;;17.19;35.80
15674;BME280;7937;48.090;16.212;2023-03-21T11:02:56;97763.81;;;17.94;34.55
15674;BME280;7937;48.090;16.212;2023-03-21T11:06:04;97768.19;;;18.33;33.92
15674;BME280;7937;48.090;16.212;2023-03-21T11:09:17;97742.25;;;17.94;35.05
15674;BME280;7937;48.090;16.212;2023-03-21T11:12:38;97748.94;;;17.67;34.43
15674;BME280;7937;48.090;16.212;2023-03-21T11:15:56;97756.97;;;17.19;35.19
15674;BME280;7937;48.090;16.212;2023-03-21T11:19:01;97711.75;;;16.43;36.27
15674;BME280;7937;48.090;16.212;2023-03-21T11:22:06;97726.00;;;16.88;35.89
15674;BME280;7937;48.090;16.212;2023-03-21T11:25:36;97746.66;;;17.26;35.60
15674;BME280;7937;48.090;16.212;2023-03-21T11:28:39;97739.06;;;17.34;35.04
15674;BME280;7937;48.090;16.212;2023-03-21T11:31:42;97736.31;;;17.92;34.70
15674;BME280;7937;48.090;16.212;2023-03-21T11:34:48;97748.41;;;18.18;34.07
15674;BME280;7937;48.090;16.212;2023-03-21T11:37:53;97746.53;;;17.42;34.49
15674;BME280;7937;48.090;16.212;2023-03-21T11:40:58;97732.47;;;17.21;35.10
15674;BME280;7937;48.090;16.212;2023-03-21T11:44:01;97738.41;;;17.47;35.32
15674;BME280;7937;48.090;16.212;2023-03-21T11:47:03;97731.25;;;17.32;35.17
15674;BME280;7937;48.090;16.212;2023-03-21T11:50:34;97713.81;;;17.30;35.98
15674;BME280;7937;48.090;16.212;2023-03-21T11:53:39;97715.09;;;17.03;35.99
15674;BME280;7937;48.090;16.212;2023-03-21T11:56:46;97711.69;;;16.92;36.58
15674;BME280;7937;48.090;16.212;2023-03-21T12:00:11;97723.19;;;17.03;37.52
15674;BME280;7937;48.090;16.212;2023-03-21T12:07:08;97701.63;;;17.85;35.26
15674;BME280;7937;48.090;16.212;2023-03-21T12:17:31;97692.53;;;16.20;37.56
15674;BME280;7937;48.090;16.212;2023-03-21T12:20:13;97692.28;;;16.61;37.67
15674;BME280;7937;48.090;16.212;2023-03-21T12:26:27;97683.91;;;17.55;36.19
15674;BME280;7937;48.090;16.212;2023-03-21T12:40:08;97675.53;;;17.57;35.12
15674;BME280;7937;48.090;16.212;2023-03-21T12:52:48;97680.84;;;15.91;38.53
15674;BME280;7937;48.090;16.212;2023-03-21T12:55:52;97573.00;;;14.93;39.07
15674;BME280;7937;48.090;16.212;2023-03-21T13:02:42;97661.13;;;15.51;38.80
15674;BME280;7937;48.090;16.212;2023-03-21T13:05:51;97658.38;;;15.61;39.15
15674;BME280;7937;48.090;16.212;2023-03-21T13:09:01;97636.44;;;15.49;38.88
15674;BME280;7937;48.090;16.212;2023-03-21T13:12:21;97658.63;;;15.80;38.22
15674;BME280;7937;48.090;16.212;2023-03-21T13:15:31;97652.69;;;15.88;38.68
15674;BME280;7937;48.090;16.212;2023-03-21T13:18:50;97651.78;;;15.38;39.61
15674;BME280;7937;48.090;16.212;2023-03-21T13:22:09;97650.47;;;15.20;40.41
15674;BME280;7937;48.090;16.212;2023-03-21T13:25:18;97646.97;;;15.25;40.16
15674;BME280;7937;48.090;16.212;2023-03-21T13:28:26;97635.13;;;15.31;39.98
15674;BME280;7937;48.090;16.212;2023-03-21T13:31:31;97630.28;;;15.43;40.13
15674;BME280;7937;48.090;16.212;2023-03-21T13:34:57;97628.31;;;15.69;39.57
15674;BME280;7937;48.090;16.212;2023-03-21T13:38:19;97632.59;;;15.70;39.26
15674;BME280;7937;48.090;16.212;2023-03-21T13:41:34;97624.28;;;15.72;39.77
15674;BME280;7937;48.090;16.212;2023-03-21T13:44:45;97623.44;;;15.82;39.91
15674;BME280;7937;48.090;16.212;2023-03-21T13:47:57;97628.38;;;16.09;39.45
15674;BME280;7937;48.090;16.212;2023-03-21T13:51:02;97631.47;;;15.87;39.12
15674;BME280;7937;48.090;16.212;2023-03-21T13:57:28;97615.38;;;15.82;39.34
15674;BME280;7937;48.090;16.212;2023-03-21T14:00:39;97611.38;;;15.74;39.42
15674;BME280;7937;48.090;16.212;2023-03-21T14:03:42;97610.34;;;15.65;40.43
15674;BME280;7937;48.090;16.212;2023-03-21T14:06:56;97617.31;;;15.66;40.37
15674;BME280;7937;48.090;16.212;2023-03-21T14:10:17;97614.91;;;15.64;40.47
15674;BME280;7937;48.090;16.212;2023-03-21T14:13:24;97578.41;;;15.58;40.04
15674;BME280;7937;48.090;16.212;2023-03-21T14:16:26;97600.88;;;15.83;39.46
15674;BME280;7937;48.090;16.212;2023-03-21T14:19:30;97601.63;;;15.88;39.84
15674;BME280;7937;48.090;16.212;2023-03-21T14:22:32;97598.22;;;15.72;39.87
15674;BME280;7937;48.090;16.212;2023-03-21T14:25:36;97598.84;;;15.49;40.40
15674;BME280;7937;48.090;16.212;2023-03-21T14:28:50;97604.78;;;15.36;40.76
15674;BME280;7937;48.090;16.212;2023-03-21T14:31:54;97601.59;;;15.34;41.13
15674;BME280;7937;48.090;16.212;2023-03-21T14:34:59;97597.78;;;15.45;40.79
15674;BME280;7937;48.090;16.212;2023-03-21T14:38:07;97594.84;;;15.36;40.78
15674;BME280;7937;48.090;16.212;2023-03-21T14:41:27;97586.56;;;15.38;41.10
15674;BME280;7937;48.090;16.212;2023-03-21T14:44:41;97534.28;;;15.20;41.19
15674;BME280;7937;48.090;16.212;2023-03-21T14:48:03;97590.06;;;15.28;41.49
15674;BME280;7937;48.090;16.212;2023-03-21T14:51:06;97594.34;;;15.29;41.20
15674;BME280;7937;48.090;16.212;2023-03-21T14:54:15;97587.88;;;15.35;41.71
15674;BME280;7937;48.090;16.212;2023-03-21T14:57:21;97565.75;;;15.04;41.13
15674;BME280;7937;48.090;16.212;2023-03-21T15:00:28;97556.34;;;15.02;41.85
15674;BME280;7937;48.090;16.212;2023-03-21T15:03:31;97593.88;;;15.12;41.67
15674;BME280;7937;48.090;16.212;2023-03-21T15:06:50;97582.59;;;15.15;41.45
15674;BME280;7937;48.090;16.212;2023-03-21T15:09:56;97583.69;;;15.09;41.81
15674;BME280;7937;48.090;16.212;2023-03-21T15:13:01;97583.41;;;15.10;41.94
15674;BME280;7937;48.090;16.212;2023-03-21T15:16:13;97582.88;;;15.18;41.51
15674;BME280;7937;48.090;16.212;2023-03-21T15:19:19;97576.94;;;15.16;41.89
15674;BME280;7937;48.090;16.212;2023-03-21T15:22:38;97581.50;;;15.21;40.97
15674;BME280;7937;48.090;16.212;2023-03-21T15:25:41;97585.28;;;15.15;41.22
15674;BME280;7937;48.090;16.212;2023-03-21T15:28:46;97576.63;;;15.33;40.91
15674;BME280;7937;48.090;16.212;2023-03-21T15:31:49;97544.72;;;15.21;40.78
15674;BME280;7937;48.090;16.212;2023-03-21T15:35:02;97574.78;;;15.23;41.43
15674;BME280;7937;48.090;16.212;2023-03-21T15:38:05;97556.06;;;15.08;41.55
15674;BME280;7937;48.090;16.212;2023-03-21T15:44:22;97562.94;;;15.30;41.99
15674;BME280;7937;48.090;16.212;2023-03-21T15:51:06;97563.25;;;15.23;41.47
15674;BME280;7937;48.090;16.212;2023-03-21T15:54:17;97559.00;;;15.07;41.48
15674;BME280;7937;48.090;16.212;2023-03-21T15:57:25;97483.00;;;14.52;42.19
15674;BME280;7937;48.090;16.212;2023-03-21T16:03:42;97565.81;;;14.79;42.29
15674;BME280;7937;48.090;16.212;2023-03-21T16:06:57;97557.47;;;14.85;42.14
15674;BME280;7937;48.090;16.212;2023-03-21T16:10:02;97551.03;;;14.81;41.83
15674;BME280;7937;48.090;16.212;2023-03-21T16:13:05;97555.31;;;14.87;42.05
15674;BME280;7937;48.090;16.212;2023-03-21T16:16:37;97554.00;;;14.75;41.97
15674;BME280;7937;48.090;16.212;2023-03-21T16:19:39;97553.47;;;14.67;41.89
15674;BME280;7937;48.090;16.212;2023-03-21T16:22:44;97562.88;;;14.65;42.05
15674;BME280;7937;48.090;16.212;2023-03-21T16:25:46;97536.34;;;14.48;41.99
15674;BME280;7937;48.090;16.212;2023-03-21T16:28:48;97559.94;;;14.51;42.79
15674;BME280;7937;48.090;16.212;2023-03-21T16:31:50;97565.81;;;14.43;42.90
15674;BME280;7937;48.090;16.212;2023-03-21T16:34:53;97562.31;;;14.27;43.71
15674;BME280;7937;48.090;16.212;2023-03-21T16:37:55;97558.56;;;14.08;44.81
15674;BME280;7937;48.090;16.212;2023-03-21T16:40:57;97562.03;;;13.83;45.64
15674;BME280;7937;48.090;16.212;2023-03-21T16:43:59;97556.59;;;13.52;46.70
15674;BME280;7937;48.090;16.212;2023-03-21T16:47:01;97540.94;;;13.18;46.88
15674;BME280;7937;48.090;16.212;2023-03-21T16:50:38;97561.44;;;12.93;47.57
15674;BME280;7937;48.090;16.212;2023-03-21T16:53:43;97572.78;;;12.68;48.09
15674;BME280;7937;48.090;16.212;2023-03-21T16:56:48;97564.56;;;12.37;48.58
15674;BME280;7937;48.090;16.212;2023-03-21T16:59:51;97570.72;;;12.10;49.50
15674;BME280;7937;48.090;16.212;2023-03-21T17:02:55;97574.56;;;11.87;49.51
15674;BME280;7937;48.090;16.212;2023-03-21T17:05:58;97574.50;;;11.60;50.42
15674;BME280;7937;48.090;16.212;2023-03-21T17:09:00;97548.66;;;11.17;50.74
15674;BME280;7937;48.090;16.212;2023-03-21T17:12:08;97574.28;;;11.18;51.24
15674;BME280;7937;48.090;16.212;2023-03-21T17:15:11;97582.53;;;10.95;51.92
15674;BME280;7937;48.090;16.212;2023-03-21T17:18:14;97582.97;;;10.70;52.38
15674;BME280;7937;48.090;16.212;2023-03-21T17:21:22;97558.97;;;10.31;52.86
15674;BME280;7937;48.090;16.212;2023-03-21T17:24:25;97566.28;;;10.24;53.43
15674;BME280;7937;48.090;16.212;2023-03-21T17:27:29;97590.03;;;10.14;53.82
15674;BME280;7937;48.090;16.212;2023-03-21T17:30:34;97587.13;;;9.98;54.31
15674;BME280;7937;48.090;16.212;2023-03-21T17:33:37;97554.13;;;9.66;54.28
15674;BME280;7937;48.090;16.212;2023-03-21T17:36:41;97584.72;;;9.68;54.84
15674;BME280;7937;48.090;16.212;2023-03-21T17:39:44;97584.69;;;9.51;55.42
15674;BME280;7937;48.090;16.212;2023-03-21T17:42:49;97585.78;;;9.39;55.74
15674;BME280;7937;48.090;16.212;2023-03-21T17:45:52;97585.22;;;9.25;55.95
15674;BME280;7937;48.090;16.212;2023-03-21T17:48:56;97590.81;;;9.12;56.70
15674;BME280;7937;48.090;16.212;2023-03-21T17:51:59;97593.63;;;8.93;57.06
15674;BME280;7937;48.090;16.212;2023-03-21T17:55:02;97573.44;;;8.69;57.23
15674;BME280;7937;48.090;16.212;2023-03-21T17:58:05;97597.09;;;8.70;57.60
15674;BME280;7937;48.090;16.212;2023-03-21T18:01:07;97592.84;;;8.58;57.96
15674;BME280;7937;48.090;16.212;2023-03-21T18:04:10;97599.84;;;8.52;58.22
15674;BME280;7937;48.090;16.212;2023-03-21T18:07:13;97597.66;;;8.37;58.66
15674;BME280;7937;48.090;16.212;2023-03-21T18:10:35;97605.47;;;8.32;58.69
15674;BME280;7937;48.090;16.212;2023-03-21T18:13:40;97602.94;;;8.25;58.83
15674;BME280;7937;48.090;16.212;2023-03-21T18:16:43;97611.00;;;8.19;59.33